This is the latest recevied weather packets stored in our database for station/object JP3QZN-13. If no packets are shown the sender has not sent any weather packets the latest 10 day(s).
| Time | Temp. | Humidity | Pressure | Rain* | Wind** | Luminosity | Snow |
|---|---|---|---|---|---|---|---|
| 1777955405 | 28.33° C | 28% | 1021.9 hPa | 0 mm | - | - | - |
| 1777955225 | 28.33° C | 28% | 1022 hPa | 0 mm | - | - | - |
| 1777953625 | 28.33° C | 29% | 1022.2 hPa | 0 mm | - | - | - |
| 1777951824 | 27.78° C | 31% | 1022.9 hPa | 0 mm | - | - | - |
| 1777950024 | 27.22° C | 33% | 1023.3 hPa | 0 mm | - | - | - |
| 1777948223 | 26.67° C | 35% | 1024 hPa | 0 mm | - | - | - |
| 1777946423 | 25.56° C | 36% | 1024.7 hPa | 0 mm | - | - | - |
| 1777944622 | 24.44° C | 36% | 1025.3 hPa | 0 mm | - | - | - |
| 1777942821 | 22.78° C | 37% | 1026.1 hPa | 0 mm | - | - | - |
| 1777941020 | 21.67° C | 40% | 1026.3 hPa | 0 mm | - | - | - |
| 1777939219 | 20.56° C | 45% | 1026.7 hPa | 0 mm | - | - | - |
| 1777937418 | 18.33° C | 51% | 1027.2 hPa | 0 mm | - | - | - |
| 1777935618 | 16.67° C | 54% | 1027.2 hPa | 0 mm | - | - | - |
| 1777933816 | 15° C | 60% | 1027.2 hPa | 0 mm | - | - | - |
| 1777932016 | 13.33° C | 66% | 1027 hPa | 0 mm | - | - | - |
| 1777930215 | 12.22° C | 67% | 1026.8 hPa | 0 mm | - | - | - |
| 1777928414 | 11.67° C | 66% | 1025.9 hPa | 0 mm | - | - | - |
| 1777926613 | 11.67° C | 65% | 1025.2 hPa | 0 mm | - | - | - |
| 1777924813 | 12.22° C | 64% | 1024.4 hPa | 0 mm | - | - | - |
| 1777923012 | 12.22° C | 64% | 1023.7 hPa | 0 mm | - | - | - |
| 1777921211 | 12.78° C | 63% | 1023.4 hPa | 0 mm | - | - | - |
| 1777919410 | 12.78° C | 62% | 1022.8 hPa | 0 mm | - | - | - |
| 1777915808 | 13.33° C | 60% | 1022 hPa | 0 mm | - | - | - |
| 1777914007 | 13.89° C | 59% | 1021.6 hPa | 0 mm | - | - | - |
| 1777912206 | 13.89° C | 58% | 1021.2 hPa | 0 mm | - | - | - |
* Rain latest hour (hover to see other rain measurements)
** Current wind speed in m/s (hover to see current wind gust speed)